Flight Track Log - Related Links

Times and Time Zones

All times are in EDT time to prevent confusion due to time zone crossing. See the SCX8700 flight status page for this flight to view local times or setup timezone preferences in your user account.

Time Position Orientation Groundspeed Altitude Reporting Facility
EDT Latitude Longitude Course Direction KTS MPH feet Rate Location/Type
Tue 08:51:29 AM 44.9333 -93.2333 10° North 182 209 4,400  Level Minneapolis TRACON
Tue 08:52:29 AM 45.0000 -93.2167 10° North 263 303 7,200 2,847 Climbing Minneapolis TRACON
Tue 08:53:46 AM 44.9547 -93.0722 114° Southeast 318 366 10,900 2,935 Climbing Minneapolis Center
Tue 08:54:48 AM 44.8994 -92.9508 123° Southeast 362 417 14,000 3,268 Climbing Minneapolis Center
Tue 08:55:49 AM 44.8422 -92.8253 123° Southeast 375 432 17,600 3,317 Climbing Minneapolis Center
Tue 08:56:51 AM 44.7819 -92.6953 123° Southeast 389 448 20,800 2,683 Climbing Minneapolis Center
Tue 08:57:52 AM 44.7197 -92.5592 123° Southeast 405 466 23,100 2,341 Climbing Minneapolis Center
Tue 08:58:54 AM 44.6558 -92.4217 123° Southeast 415 478 25,600 2,390 Climbing Minneapolis Center
Tue 08:59:55 AM 44.5917 -92.2839 123° Southeast 418 481 28,000 2,098 Climbing Minneapolis Center
Tue 09:00:57 AM 44.5233 -92.1439 124° Southeast 430 495 29,900 1,694 Climbing Minneapolis Center
Tue 09:01:59 AM 44.4489 -92.0011 126° Southeast 446 513 31,500 1,659 Climbing Minneapolis Center
Tue 09:03:00 AM 44.3572 -91.8217 126° Southeast 470 541 33,300 1,756 Climbing Minneapolis Center
Tue 09:04:02 AM 44.2981 -91.6550 116° Southeast 478 550 35,100 1,610 Climbing Minneapolis Center
Tue 09:05:03 AM 44.2342 -91.4906 118° Southeast 479 551 36,600 1,317 Climbing Minneapolis Center
Tue 09:06:05 AM 44.1692 -91.3253 119° Southeast 484 557 37,800 1,065 Climbing Minneapolis Center
Tue 09:07:07 AM 44.1031 -91.1531 118° Southeast 485 558 38,800 1,073 Climbing Minneapolis Center
Tue 09:08:08 AM 44.0378 -90.9856 118° Southeast 490 564 40,000 1,073 Climbing Minneapolis Center
Tue 09:09:10 AM 43.9731 -90.8206 119° Southeast 490 564 41,000 484 Climbing Minneapolis Center
Tue 09:10:12 AM 43.9103 -90.6581 118° Southeast 484 557 41,000  Level Minneapolis Center
Tue 09:10:47 AM 43.8667 -90.5683 124° Southeast 487 560 41,000  Level Chicago Center
Tue 09:11:48 AM 43.7836 -90.4317 130° Southeast 470 541 41,000  Level Chicago Center
Tue 09:12:50 AM 43.6872 -90.2706 130° Southeast 467 537 41,000  Level Chicago Center
Tue 09:13:52 AM 43.6008 -90.1317 131° Southeast 476 548 41,000  Level Chicago Center
Tue 09:14:54 AM 43.5172 -89.9947 130° Southeast 472 543 41,000  Level Chicago Center
Tue 09:15:56 AM 43.4342 -89.8569 130° Southeast 471 542 41,000  Level Chicago Center
Tue 09:16:58 AM 43.3325 -89.6964 131° Southeast 468 539 41,000  Level Chicago Center
Tue 09:18:00 AM 43.2506 -89.5628 130° Southeast 464 534 41,000  Level Chicago Center
Tue 09:19:02 AM 43.1700 -89.4303 130° Southeast 462 532 41,000  Level Chicago Center
Tue 09:20:04 AM 43.0858 -89.2983 131° Southeast 460 529 41,000  Level Chicago Center
Tue 09:21:05 AM 43.0031 -89.1658 130° Southeast 460 529 41,000  Level Chicago Center
Tue 09:22:07 AM 42.9036 -89.0078 131° Southeast 461 531 41,000 -435 Level Chicago Center
Tue 09:23:09 AM 42.8197 -88.8769 131° Southeast 462 532 40,100 -871 Descending Chicago Center
Tue 09:24:11 AM 42.7367 -88.7469 131° Southeast 460 529 39,200 -871 Descending Chicago Center
Tue 09:25:13 AM 42.6525 -88.6128 130° Southeast 465 535 38,300 -919 Descending Chicago Center
Tue 09:26:15 AM 42.5644 -88.4758 131° Southeast 480 552 37,300 -919 Descending Chicago Center
Tue 09:27:17 AM 42.4772 -88.3414 131° Southeast 480 552 36,400 -1,016 Descending Chicago Center
Tue 09:28:19 AM 42.3706 -88.1800 132° Southeast 480 552 35,200 -677 Descending Chicago Center
Tue 09:29:21 AM 42.2839 -88.0453 131° Southeast 480 552 35,000 -97 Descending Chicago Center
Tue 09:30:23 AM 42.2197 -87.8897 119° Southeast 493 567 35,000  Level Chicago Center
Tue 09:31:25 AM 42.2100 -87.7017 94° East 503 579 35,000 -532 Level Chicago Center
Tue 09:32:27 AM 42.1994 -87.5178 94° East 501 577 33,900 -1,122 Descending Chicago Center
Tue 09:33:28 AM 42.1881 -87.3036 94° East 485 558 32,700 -1,073 Descending Chicago Center
Tue 09:34:30 AM 42.1772 -87.1306 95° East 472 543 31,700 -968 Descending Chicago Center
Tue 09:35:32 AM 42.1658 -86.9572 95° East 468 539 30,700 -968 Descending Chicago Center
Tue 09:36:34 AM 42.1561 -86.7881 94° East 461 531 29,700 -968 Descending Chicago Center
Tue 09:37:36 AM 42.1447 -86.6194 95° East 455 524 28,700 -968 Descending Chicago Center
Tue 09:38:38 AM 42.1347 -86.4514 95° East 455 524 27,700 -968 Descending Chicago Center
Tue 09:39:40 AM 42.1239 -86.2897 95° East 438 504 26,700 -968 Descending Chicago Center
Tue 09:40:42 AM 42.1133 -86.1311 95° East 430 495 25,700 -1,024 Descending Chicago Center
Tue 09:41:43 AM 42.1006 -85.9517 95° East 427 491 24,600 -1,024 Descending Chicago Center
Tue 09:42:45 AM 42.0906 -85.7953 95° East 426 490 23,600 -968 Descending Chicago Center
Tue 09:43:47 AM 42.0794 -85.6461 96° East 408 470 22,600 -1,065 Descending Chicago Center
Tue 09:44:49 AM 42.0667 -85.4617 95° East 407 468 21,400 -1,452 Descending Chicago Center
Tue 09:45:51 AM 42.0569 -85.3183 95° East 400 460 19,600 -1,790 Descending Chicago Center
Tue 09:46:53 AM 42.0375 -85.1786 101° East 381 438 17,700 -1,258 Descending Chicago Center
Tue 09:47:55 AM 41.9986 -85.0561 113° Southeast 369 425 17,000 -1,161 Descending Chicago Center
Tue 09:48:57 AM 41.9750 -84.9333 104° East 363 418 15,300 -1,548 Descending Chicago Center
Tue 09:49:59 AM 41.9322 -84.7911 112° Southeast 344 396 13,800 -1,220 Descending Chicago Center
Tue 09:51:00 AM 41.8925 -84.6764 115° Southeast 340 391 12,800 -982 Descending Chicago Center
Tue 09:51:49 AM 41.8611 -84.5894 116° Southeast 333 383 12,000 -973 Descending Cleveland Center
Tue 09:52:51 AM 41.8242 -84.4797 114° Southeast 324 373 11,000 -919 Descending Cleveland Center
Tue 09:53:53 AM 41.7853 -84.3703 115° Southeast 325 374 10,100 -968 Descending Cleveland Center
Tue 09:54:55 AM 41.7500 -84.2689 115° Southeast 304 350 9,000 -1,210 Descending Cleveland Center
Tue 09:55:57 AM 41.7117 -84.1606 115° Southeast 285 328 7,600 -1,403 Descending Cleveland Center
Tue 09:56:59 AM 41.6792 -84.0678 115° Southeast 280 322 6,100 -1,366 Descending Cleveland Center
Tue 09:58:00 AM 41.6469 -83.9778 116° Southeast 271 312 4,800 -1,366 Descending Cleveland Center
Tue 09:59:02 AM 41.6406 -83.8811 95° East 282 325 3,300 -871 Descending Cleveland Center
Tue 10:00:04 AM 41.6725 -83.7892 65° Northeast 278 320 3,000 -242 Descending Cleveland Center
Tue 10:01:06 AM 41.6678 -83.7117 95° East 223 257 2,800 -339 Descending Cleveland Center
Tue 10:02:08 AM 41.6297 -83.6967 164° South 172 198 2,300 -532 Descending Cleveland Center
Tue 10:03:10 AM 41.6119 -83.7342 238° Southwest 146 168 1,700 -339 Descending Cleveland Center
Tue 10:04:12 AM 41.5975 -83.7678 240° Southwest 138 159 1,600 -97 Descending Cleveland Center

Login

Don't have an account? Register now (free) for customized features, flight alerts, and more!